Terminal Aerodrome Forecast
Issued by NWS Caribou, ME

Home | Current Version | Previous Version | Text Only | Print | Product List | Glossary On
Versions: 1 2 3 4 5 6 7 8 9 10 11 12 13 14 15 16 17 18 19 20 21 22 23
910
FTUS41 KCAR 230520
TAFBGR
TAF
KBGR 230520Z 2306/2406 35003KT P6SM SKC
     FM231800 17006KT P6SM OVC100
     FM232000 18009KT 6SM -SN OVC040
     FM232200 18009KT 2SM -SN BR OVC020
     FM240000 18010KT 3SM -SNRA BR OVC012=

USA.gov is the U.S. government's official web portal to all federal, state and local government web resources and services.